sensor_id;sensor_type;location;lat;lon;timestamp;temperature;humidity
31311;DHT22;17937;51.508;7.534;2022-11-06T00:01:58;9.40;99.90
31311;DHT22;17937;51.508;7.534;2022-11-06T00:04:24;9.40;99.90
31311;DHT22;17937;51.508;7.534;2022-11-06T00:06:52;9.40;99.90
31311;DHT22;17937;51.508;7.534;2022-11-06T00:09:19;9.30;99.90
31311;DHT22;17937;51.508;7.534;2022-11-06T00:11:46;9.30;99.90
31311;DHT22;17937;51.508;7.534;2022-11-06T00:14:12;9.20;99.90
31311;DHT22;17937;51.508;7.534;2022-11-06T00:16:39;9.30;99.90
31311;DHT22;17937;51.508;7.534;2022-11-06T00:19:05;9.30;99.90
31311;DHT22;17937;51.508;7.534;2022-11-06T00:21:31;9.30;99.90
31311;DHT22;17937;51.508;7.534;2022-11-06T00:23:59;9.30;99.90
31311;DHT22;17937;51.508;7.534;2022-11-06T00:26:26;9.30;99.90
31311;DHT22;17937;51.508;7.534;2022-11-06T00:28:52;9.30;99.90
31311;DHT22;17937;51.508;7.534;2022-11-06T00:31:24;9.30;99.90
31311;DHT22;17937;51.508;7.534;2022-11-06T00:33:50;9.30;99.90
31311;DHT22;17937;51.508;7.534;2022-11-06T00:36:18;9.30;99.90
31311;DHT22;17937;51.508;7.534;2022-11-06T00:38:44;9.30;99.90
31311;DHT22;17937;51.508;7.534;2022-11-06T00:41:14;9.40;99.90
31311;DHT22;17937;51.508;7.534;2022-11-06T00:43:41;9.40;99.90
31311;DHT22;17937;51.508;7.534;2022-11-06T00:46:07;9.40;99.90
31311;DHT22;17937;51.508;7.534;2022-11-06T00:48:34;9.40;99.90
31311;DHT22;17937;51.508;7.534;2022-11-06T00:51:23;9.40;99.90
31311;DHT22;17937;51.508;7.534;2022-11-06T00:53:56;9.40;99.90
31311;DHT22;17937;51.508;7.534;2022-11-06T00:56:22;9.40;99.90
31311;DHT22;17937;51.508;7.534;2022-11-06T00:58:48;9.40;99.90
31311;DHT22;17937;51.508;7.534;2022-11-06T01:01:15;9.40;99.90
31311;DHT22;17937;51.508;7.534;2022-11-06T01:03:43;9.40;99.90
31311;DHT22;17937;51.508;7.534;2022-11-06T01:06:16;9.40;99.90
31311;DHT22;17937;51.508;7.534;2022-11-06T01:08:42;9.30;99.90
31311;DHT22;17937;51.508;7.534;2022-11-06T01:13:39;9.20;99.90
31311;DHT22;17937;51.508;7.534;2022-11-06T01:16:07;9.20;99.90
31311;DHT22;17937;51.508;7.534;2022-11-06T01:18:33;9.20;99.90
31311;DHT22;17937;51.508;7.534;2022-11-06T01:21:05;9.20;99.90
31311;DHT22;17937;51.508;7.534;2022-11-06T01:23:31;9.20;99.90
31311;DHT22;17937;51.508;7.534;2022-11-06T01:25:58;9.10;99.90
31311;DHT22;17937;51.508;7.534;2022-11-06T01:28:24;9.10;99.90
31311;DHT22;17937;51.508;7.534;2022-11-06T01:30:50;9.10;99.90
31311;DHT22;17937;51.508;7.534;2022-11-06T01:33:15;9.10;99.90
31311;DHT22;17937;51.508;7.534;2022-11-06T01:35:45;9.10;99.90
31311;DHT22;17937;51.508;7.534;2022-11-06T01:38:11;9.10;99.90
31311;DHT22;17937;51.508;7.534;2022-11-06T01:40:45;9.10;99.90
31311;DHT22;17937;51.508;7.534;2022-11-06T01:43:17;9.10;99.90
31311;DHT22;17937;51.508;7.534;2022-11-06T01:45:46;9.00;99.90
31311;DHT22;17937;51.508;7.534;2022-11-06T01:48:12;9.00;99.90
31311;DHT22;17937;51.508;7.534;2022-11-06T01:50:39;9.00;99.90
31311;DHT22;17937;51.508;7.534;2022-11-06T01:53:06;9.00;99.90
31311;DHT22;17937;51.508;7.534;2022-11-06T01:55:36;9.00;99.90
31311;DHT22;17937;51.508;7.534;2022-11-06T01:58:04;9.00;99.90
31311;DHT22;17937;51.508;7.534;2022-11-06T02:00:30;9.00;99.90
31311;DHT22;17937;51.508;7.534;2022-11-06T02:02:57;9.00;99.90
31311;DHT22;17937;51.508;7.534;2022-11-06T02:05:23;9.00;99.90
31311;DHT22;17937;51.508;7.534;2022-11-06T02:07:49;9.00;99.90
31311;DHT22;17937;51.508;7.534;2022-11-06T02:10:15;9.00;99.90
31311;DHT22;17937;51.508;7.534;2022-11-06T02:12:54;9.00;99.90
31311;DHT22;17937;51.508;7.534;2022-11-06T02:15:46;9.00;99.90
31311;DHT22;17937;51.508;7.534;2022-11-06T02:24:18;8.90;99.90
31311;DHT22;17937;51.508;7.534;2022-11-06T02:31:58;8.90;99.90
31311;DHT22;17937;51.508;7.534;2022-11-06T02:34:27;8.90;99.90
31311;DHT22;17937;51.508;7.534;2022-11-06T02:37:09;8.80;99.90
31311;DHT22;17937;51.508;7.534;2022-11-06T02:39:38;8.90;99.90
31311;DHT22;17937;51.508;7.534;2022-11-06T02:42:06;8.80;99.90
31311;DHT22;17937;51.508;7.534;2022-11-06T02:44:35;8.90;99.90
31311;DHT22;17937;51.508;7.534;2022-11-06T02:47:04;8.90;99.90
31311;DHT22;17937;51.508;7.534;2022-11-06T02:52:33;8.90;99.90
31311;DHT22;17937;51.508;7.534;2022-11-06T02:57:34;8.80;99.90
31311;DHT22;17937;51.508;7.534;2022-11-06T03:00:10;8.90;99.90
31311;DHT22;17937;51.508;7.534;2022-11-06T03:02:57;8.80;99.90
31311;DHT22;17937;51.508;7.534;2022-11-06T03:05:32;8.90;99.90
31311;DHT22;17937;51.508;7.534;2022-11-06T03:08:09;8.90;99.90
31311;DHT22;17937;51.508;7.534;2022-11-06T03:11:03;8.90;99.90
31311;DHT22;17937;51.508;7.534;2022-11-06T03:16:14;8.90;99.90
31311;DHT22;17937;51.508;7.534;2022-11-06T03:18:51;8.90;99.90
31311;DHT22;17937;51.508;7.534;2022-11-06T03:24:39;8.90;99.90
31311;DHT22;17937;51.508;7.534;2022-11-06T03:27:23;8.90;99.90
31311;DHT22;17937;51.508;7.534;2022-11-06T03:29:53;8.90;99.90
31311;DHT22;17937;51.508;7.534;2022-11-06T03:35:37;8.90;99.90
31311;DHT22;17937;51.508;7.534;2022-11-06T03:40:33;8.90;99.90
31311;DHT22;17937;51.508;7.534;2022-11-06T03:43:03;8.90;99.90
31311;DHT22;17937;51.508;7.534;2022-11-06T03:45:31;8.90;99.90
31311;DHT22;17937;51.508;7.534;2022-11-06T03:50:44;8.90;99.90
31311;DHT22;17937;51.508;7.534;2022-11-06T03:53:15;8.90;99.90
31311;DHT22;17937;51.508;7.534;2022-11-06T03:56:09;8.80;99.90
31311;DHT22;17937;51.508;7.534;2022-11-06T03:58:39;8.80;99.90
31311;DHT22;17937;51.508;7.534;2022-11-06T04:01:08;8.80;99.90
31311;DHT22;17937;51.508;7.534;2022-11-06T04:06:15;8.80;99.90
31311;DHT22;17937;51.508;7.534;2022-11-06T04:08:43;8.80;99.90
31311;DHT22;17937;51.508;7.534;2022-11-06T04:11:30;8.80;99.90
31311;DHT22;17937;51.508;7.534;2022-11-06T04:14:17;8.80;99.90
31311;DHT22;17937;51.508;7.534;2022-11-06T04:16:50;8.70;99.90
31311;DHT22;17937;51.508;7.534;2022-11-06T04:19:18;8.70;99.90
31311;DHT22;17937;51.508;7.534;2022-11-06T04:27:48;8.70;99.90
31311;DHT22;17937;51.508;7.534;2022-11-06T04:30:18;8.70;99.90
31311;DHT22;17937;51.508;7.534;2022-11-06T04:35:30;8.70;99.90
31311;DHT22;17937;51.508;7.534;2022-11-06T04:38:48;8.60;99.90
31311;DHT22;17937;51.508;7.534;2022-11-06T04:46:15;8.60;99.90
31311;DHT22;17937;51.508;7.534;2022-11-06T04:48:42;8.60;99.90
31311;DHT22;17937;51.508;7.534;2022-11-06T04:51:10;8.70;99.90
31311;DHT22;17937;51.508;7.534;2022-11-06T04:53:37;8.70;99.90
31311;DHT22;17937;51.508;7.534;2022-11-06T04:56:12;8.70;99.90
31311;DHT22;17937;51.508;7.534;2022-11-06T04:58:38;8.70;99.90
31311;DHT22;17937;51.508;7.534;2022-11-06T05:01:04;8.70;99.90
31311;DHT22;17937;51.508;7.534;2022-11-06T05:03:30;8.70;99.90
31311;DHT22;17937;51.508;7.534;2022-11-06T05:05:56;8.70;99.90
31311;DHT22;17937;51.508;7.534;2022-11-06T05:08:21;8.70;99.90
31311;DHT22;17937;51.508;7.534;2022-11-06T05:10:47;8.70;99.90
31311;DHT22;17937;51.508;7.534;2022-11-06T05:13:14;8.70;99.90
31311;DHT22;17937;51.508;7.534;2022-11-06T05:15:40;8.70;99.90
31311;DHT22;17937;51.508;7.534;2022-11-06T05:18:06;8.60;99.90
31311;DHT22;17937;51.508;7.534;2022-11-06T05:20:32;8.70;99.90
31311;DHT22;17937;51.508;7.534;2022-11-06T05:22:58;8.60;99.90
31311;DHT22;17937;51.508;7.534;2022-11-06T05:25:29;8.60;99.90
31311;DHT22;17937;51.508;7.534;2022-11-06T05:27:55;8.60;99.90
31311;DHT22;17937;51.508;7.534;2022-11-06T05:30:22;8.60;99.90
31311;DHT22;17937;51.508;7.534;2022-11-06T05:32:47;8.60;99.90
31311;DHT22;17937;51.508;7.534;2022-11-06T05:35:13;8.50;99.90
31311;DHT22;17937;51.508;7.534;2022-11-06T05:37:39;8.50;99.90
31311;DHT22;17937;51.508;7.534;2022-11-06T05:40:05;8.50;99.90
31311;DHT22;17937;51.508;7.534;2022-11-06T05:42:33;8.60;99.90
31311;DHT22;17937;51.508;7.534;2022-11-06T05:44:58;8.60;99.90
31311;DHT22;17937;51.508;7.534;2022-11-06T05:47:24;8.60;99.90
31311;DHT22;17937;51.508;7.534;2022-11-06T05:49:49;8.60;99.90
31311;DHT22;17937;51.508;7.534;2022-11-06T05:52:15;8.60;99.90
31311;DHT22;17937;51.508;7.534;2022-11-06T05:54:40;8.60;99.90
31311;DHT22;17937;51.508;7.534;2022-11-06T05:57:06;8.60;99.90
31311;DHT22;17937;51.508;7.534;2022-11-06T05:59:31;8.60;99.90
31311;DHT22;17937;51.508;7.534;2022-11-06T06:01:57;8.60;99.90
31311;DHT22;17937;51.508;7.534;2022-11-06T06:04:23;8.60;99.90
31311;DHT22;17937;51.508;7.534;2022-11-06T06:06:49;8.60;99.90
31311;DHT22;17937;51.508;7.534;2022-11-06T06:09:15;8.50;99.90
31311;DHT22;17937;51.508;7.534;2022-11-06T06:11:40;8.60;99.90
31311;DHT22;17937;51.508;7.534;2022-11-06T06:14:06;8.60;99.90
31311;DHT22;17937;51.508;7.534;2022-11-06T06:16:32;8.60;99.90
31311;DHT22;17937;51.508;7.534;2022-11-06T06:18:58;8.50;99.90
31311;DHT22;17937;51.508;7.534;2022-11-06T06:21:23;8.50;99.90
31311;DHT22;17937;51.508;7.534;2022-11-06T06:23:49;8.50;99.90
31311;DHT22;17937;51.508;7.534;2022-11-06T06:26:14;8.50;99.90
31311;DHT22;17937;51.508;7.534;2022-11-06T06:28:40;8.50;99.90
31311;DHT22;17937;51.508;7.534;2022-11-06T06:31:06;8.50;99.90
31311;DHT22;17937;51.508;7.534;2022-11-06T06:33:32;8.50;99.90
31311;DHT22;17937;51.508;7.534;2022-11-06T06:35:57;8.50;99.90
31311;DHT22;17937;51.508;7.534;2022-11-06T06:38:26;8.50;99.90
31311;DHT22;17937;51.508;7.534;2022-11-06T06:40:52;8.50;99.90
31311;DHT22;17937;51.508;7.534;2022-11-06T06:43:18;8.50;99.90
31311;DHT22;17937;51.508;7.534;2022-11-06T06:45:43;8.50;99.90
31311;DHT22;17937;51.508;7.534;2022-11-06T06:48:09;8.60;99.90
31311;DHT22;17937;51.508;7.534;2022-11-06T06:50:35;8.60;99.90
31311;DHT22;17937;51.508;7.534;2022-11-06T06:53:00;8.60;99.90
31311;DHT22;17937;51.508;7.534;2022-11-06T06:55:26;8.60;99.90
31311;DHT22;17937;51.508;7.534;2022-11-06T06:57:59;8.60;99.90
31311;DHT22;17937;51.508;7.534;2022-11-06T07:00:25;8.60;99.90
31311;DHT22;17937;51.508;7.534;2022-11-06T07:02:51;8.60;99.90
31311;DHT22;17937;51.508;7.534;2022-11-06T07:05:17;8.70;99.90
31311;DHT22;17937;51.508;7.534;2022-11-06T07:07:43;8.70;99.90
31311;DHT22;17937;51.508;7.534;2022-11-06T07:10:09;8.70;99.90
31311;DHT22;17937;51.508;7.534;2022-11-06T07:12:34;8.80;99.90
31311;DHT22;17937;51.508;7.534;2022-11-06T07:15:00;8.90;99.90
31311;DHT22;17937;51.508;7.534;2022-11-06T07:17:27;8.90;99.90
31311;DHT22;17937;51.508;7.534;2022-11-06T07:19:53;8.90;99.90
31311;DHT22;17937;51.508;7.534;2022-11-06T07:22:18;8.90;99.90
31311;DHT22;17937;51.508;7.534;2022-11-06T07:24:44;8.90;99.90
31311;DHT22;17937;51.508;7.534;2022-11-06T07:27:10;8.90;99.90
31311;DHT22;17937;51.508;7.534;2022-11-06T07:29:36;8.90;99.90
31311;DHT22;17937;51.508;7.534;2022-11-06T07:32:02;9.00;99.90
31311;DHT22;17937;51.508;7.534;2022-11-06T07:34:28;9.20;99.90
31311;DHT22;17937;51.508;7.534;2022-11-06T07:36:54;9.30;99.90
31311;DHT22;17937;51.508;7.534;2022-11-06T07:39:20;9.60;99.90
31311;DHT22;17937;51.508;7.534;2022-11-06T07:41:46;10.00;99.90
31311;DHT22;17937;51.508;7.534;2022-11-06T07:44:11;10.50;99.90
31311;DHT22;17937;51.508;7.534;2022-11-06T07:46:37;11.30;99.90
31311;DHT22;17937;51.508;7.534;2022-11-06T07:49:02;11.80;99.90
31311;DHT22;17937;51.508;7.534;2022-11-06T07:51:28;12.30;99.90
31311;DHT22;17937;51.508;7.534;2022-11-06T07:53:54;13.10;99.90
31311;DHT22;17937;51.508;7.534;2022-11-06T07:56:19;13.70;99.90
31311;DHT22;17937;51.508;7.534;2022-11-06T07:58:45;13.80;99.90
31311;DHT22;17937;51.508;7.534;2022-11-06T08:01:15;14.20;99.90
31311;DHT22;17937;51.508;7.534;2022-11-06T08:03:41;15.10;99.90
31311;DHT22;17937;51.508;7.534;2022-11-06T08:06:07;16.30;99.90
31311;DHT22;17937;51.508;7.534;2022-11-06T08:08:33;17.20;99.90
31311;DHT22;17937;51.508;7.534;2022-11-06T08:11:03;17.80;99.90
31311;DHT22;17937;51.508;7.534;2022-11-06T08:13:28;18.40;99.90
31311;DHT22;17937;51.508;7.534;2022-11-06T08:15:54;18.90;99.90
31311;DHT22;17937;51.508;7.534;2022-11-06T08:18:19;19.10;99.90
31311;DHT22;17937;51.508;7.534;2022-11-06T08:20:45;19.20;99.90
31311;DHT22;17937;51.508;7.534;2022-11-06T08:23:11;18.90;99.90
31311;DHT22;17937;51.508;7.534;2022-11-06T08:25:37;19.30;99.90
31311;DHT22;17937;51.508;7.534;2022-11-06T08:28:03;19.80;99.90
31311;DHT22;17937;51.508;7.534;2022-11-06T08:30:29;20.00;99.90
31311;DHT22;17937;51.508;7.534;2022-11-06T08:32:59;19.90;99.90
31311;DHT22;17937;51.508;7.534;2022-11-06T08:35:25;20.20;99.90
31311;DHT22;17937;51.508;7.534;2022-11-06T08:37:51;20.70;98.80
31311;DHT22;17937;51.508;7.534;2022-11-06T08:40:16;20.00;99.80
31311;DHT22;17937;51.508;7.534;2022-11-06T08:42:42;20.00;99.80
31311;DHT22;17937;51.508;7.534;2022-11-06T08:45:08;19.80;99.90
31311;DHT22;17937;51.508;7.534;2022-11-06T08:47:33;19.80;99.90
31311;DHT22;17937;51.508;7.534;2022-11-06T08:49:59;19.90;99.90
31311;DHT22;17937;51.508;7.534;2022-11-06T08:52:24;19.50;99.90
31311;DHT22;17937;51.508;7.534;2022-11-06T08:54:50;19.10;99.90
31311;DHT22;17937;51.508;7.534;2022-11-06T08:57:16;18.60;99.90
31311;DHT22;17937;51.508;7.534;2022-11-06T08:59:42;18.00;99.90
31311;DHT22;17937;51.508;7.534;2022-11-06T09:02:12;17.80;99.90
31311;DHT22;17937;51.508;7.534;2022-11-06T09:04:38;17.40;99.90
31311;DHT22;17937;51.508;7.534;2022-11-06T09:07:03;17.00;99.90
31311;DHT22;17937;51.508;7.534;2022-11-06T09:09:29;16.70;99.90
31311;DHT22;17937;51.508;7.534;2022-11-06T09:11:57;16.50;99.90
31311;DHT22;17937;51.508;7.534;2022-11-06T09:14:23;16.20;99.90
31311;DHT22;17937;51.508;7.534;2022-11-06T09:16:48;16.20;99.90
31311;DHT22;17937;51.508;7.534;2022-11-06T09:19:14;15.70;99.90
31311;DHT22;17937;51.508;7.534;2022-11-06T09:21:40;15.50;99.90
31311;DHT22;17937;51.508;7.534;2022-11-06T09:24:05;15.30;99.90
31311;DHT22;17937;51.508;7.534;2022-11-06T09:26:31;14.90;99.90
31311;DHT22;17937;51.508;7.534;2022-11-06T09:28:56;14.50;99.90
31311;DHT22;17937;51.508;7.534;2022-11-06T09:31:22;14.40;99.90
31311;DHT22;17937;51.508;7.534;2022-11-06T09:33:48;14.20;99.90
31311;DHT22;17937;51.508;7.534;2022-11-06T09:36:13;14.00;99.90
31311;DHT22;17937;51.508;7.534;2022-11-06T09:38:39;14.00;99.90
31311;DHT22;17937;51.508;7.534;2022-11-06T09:41:04;13.80;99.90
31311;DHT22;17937;51.508;7.534;2022-11-06T09:46:23;13.40;99.90
31311;DHT22;17937;51.508;7.534;2022-11-06T09:51:43;13.30;99.90
31311;DHT22;17937;51.508;7.534;2022-11-06T09:54:16;13.20;99.90
31311;DHT22;17937;51.508;7.534;2022-11-06T09:56:47;13.20;99.90
31311;DHT22;17937;51.508;7.534;2022-11-06T09:59:16;13.10;99.90
31311;DHT22;17937;51.508;7.534;2022-11-06T10:01:46;13.10;99.90
31311;DHT22;17937;51.508;7.534;2022-11-06T10:07:27;13.10;99.90
31311;DHT22;17937;51.508;7.534;2022-11-06T10:09:53;13.00;99.90
31311;DHT22;17937;51.508;7.534;2022-11-06T10:12:54;12.90;99.90
31311;DHT22;17937;51.508;7.534;2022-11-06T10:15:35;12.90;99.90
31311;DHT22;17937;51.508;7.534;2022-11-06T10:23:17;13.00;99.90
31311;DHT22;17937;51.508;7.534;2022-11-06T10:36:19;13.20;99.90
31311;DHT22;17937;51.508;7.534;2022-11-06T10:38:48;13.20;99.90
31311;DHT22;17937;51.508;7.534;2022-11-06T10:41:21;13.20;99.90
31311;DHT22;17937;51.508;7.534;2022-11-06T10:43:59;13.20;99.90
31311;DHT22;17937;51.508;7.534;2022-11-06T10:49:00;13.20;99.90
31311;DHT22;17937;51.508;7.534;2022-11-06T10:54:27;13.20;99.90
31311;DHT22;17937;51.508;7.534;2022-11-06T10:59:20;13.30;99.90
31311;DHT22;17937;51.508;7.534;2022-11-06T11:01:46;13.50;99.90
31311;DHT22;17937;51.508;7.534;2022-11-06T11:04:11;13.70;99.90
31311;DHT22;17937;51.508;7.534;2022-11-06T11:06:40;13.80;99.90
31311;DHT22;17937;51.508;7.534;2022-11-06T11:09:26;14.10;99.90
31311;DHT22;17937;51.508;7.534;2022-11-06T11:11:51;14.10;99.90
31311;DHT22;17937;51.508;7.534;2022-11-06T11:14:25;14.10;99.90
31311;DHT22;17937;51.508;7.534;2022-11-06T11:16:52;14.10;99.90
31311;DHT22;17937;51.508;7.534;2022-11-06T11:19:39;14.10;99.90
31311;DHT22;17937;51.508;7.534;2022-11-06T11:22:19;14.00;99.90
31311;DHT22;17937;51.508;7.534;2022-11-06T11:25:00;14.10;99.90
31311;DHT22;17937;51.508;7.534;2022-11-06T11:27:43;14.10;99.90
31311;DHT22;17937;51.508;7.534;2022-11-06T11:30:24;14.10;99.90
31311;DHT22;17937;51.508;7.534;2022-11-06T11:32:55;14.10;99.90
31311;DHT22;17937;51.508;7.534;2022-11-06T11:35:27;14.00;99.90
31311;DHT22;17937;51.508;7.534;2022-11-06T11:38:10;13.90;99.90
31311;DHT22;17937;51.508;7.534;2022-11-06T11:40:38;13.80;99.90
31311;DHT22;17937;51.508;7.534;2022-11-06T11:43:26;13.60;99.90
31311;DHT22;17937;51.508;7.534;2022-11-06T11:48:49;13.50;99.90
31311;DHT22;17937;51.508;7.534;2022-11-06T11:51:42;13.40;99.90
31311;DHT22;17937;51.508;7.534;2022-11-06T11:57:02;13.60;99.90
31311;DHT22;17937;51.508;7.534;2022-11-06T11:59:36;13.50;99.90
31311;DHT22;17937;51.508;7.534;2022-11-06T12:02:19;13.50;99.90
31311;DHT22;17937;51.508;7.534;2022-11-06T12:04:51;13.60;99.90
31311;DHT22;17937;51.508;7.534;2022-11-06T12:07:29;13.50;99.90
31311;DHT22;17937;51.508;7.534;2022-11-06T12:09:56;13.40;99.90
31311;DHT22;17937;51.508;7.534;2022-11-06T12:15:20;13.30;99.90
31311;DHT22;17937;51.508;7.534;2022-11-06T12:18:00;13.40;99.90
31311;DHT22;17937;51.508;7.534;2022-11-06T12:23:19;13.20;99.90
31311;DHT22;17937;51.508;7.534;2022-11-06T12:26:00;13.20;99.90
31311;DHT22;17937;51.508;7.534;2022-11-06T12:28:30;13.10;99.90
31311;DHT22;17937;51.508;7.534;2022-11-06T12:31:06;13.20;99.90
31311;DHT22;17937;51.508;7.534;2022-11-06T12:33:38;13.20;99.90
31311;DHT22;17937;51.508;7.534;2022-11-06T12:36:07;13.20;99.90
31311;DHT22;17937;51.508;7.534;2022-11-06T12:38:49;13.20;99.90
31311;DHT22;17937;51.508;7.534;2022-11-06T12:41:24;13.20;99.90
31311;DHT22;17937;51.508;7.534;2022-11-06T12:43:52;13.40;99.90
31311;DHT22;17937;51.508;7.534;2022-11-06T12:54:50;13.20;99.90
31311;DHT22;17937;51.508;7.534;2022-11-06T12:57:53;13.10;99.90
31311;DHT22;17937;51.508;7.534;2022-11-06T13:00:20;13.10;99.90
31311;DHT22;17937;51.508;7.534;2022-11-06T13:08:23;12.90;99.90
31311;DHT22;17937;51.508;7.534;2022-11-06T13:16:27;12.90;99.90
31311;DHT22;17937;51.508;7.534;2022-11-06T13:26:56;12.80;99.90
31311;DHT22;17937;51.508;7.534;2022-11-06T13:29:24;12.80;99.90
31311;DHT22;17937;51.508;7.534;2022-11-06T13:31:57;12.70;99.90
31311;DHT22;17937;51.508;7.534;2022-11-06T13:34:28;12.70;99.90
31311;DHT22;17937;51.508;7.534;2022-11-06T13:36:55;12.70;99.90
31311;DHT22;17937;51.508;7.534;2022-11-06T13:39:42;12.60;99.90
31311;DHT22;17937;51.508;7.534;2022-11-06T13:42:41;12.60;99.90
31311;DHT22;17937;51.508;7.534;2022-11-06T13:45:13;12.60;99.90
31311;DHT22;17937;51.508;7.534;2022-11-06T13:58:48;12.70;99.90
31311;DHT22;17937;51.508;7.534;2022-11-06T14:06:29;12.70;99.90
31311;DHT22;17937;51.508;7.534;2022-11-06T14:08:59;12.70;99.90
31311;DHT22;17937;51.508;7.534;2022-11-06T14:11:37;12.70;99.90
31311;DHT22;17937;51.508;7.534;2022-11-06T14:14:06;12.70;99.90
31311;DHT22;17937;51.508;7.534;2022-11-06T14:16:36;12.50;99.90
31311;DHT22;17937;51.508;7.534;2022-11-06T14:21:48;12.50;99.90
31311;DHT22;17937;51.508;7.534;2022-11-06T14:26:48;12.40;99.90
31311;DHT22;17937;51.508;7.534;2022-11-06T14:34:38;12.30;99.90
31311;DHT22;17937;51.508;7.534;2022-11-06T14:42:18;12.40;99.90
31311;DHT22;17937;51.508;7.534;2022-11-06T14:47:40;12.40;99.90
31311;DHT22;17937;51.508;7.534;2022-11-06T14:50:38;12.40;99.90
31311;DHT22;17937;51.508;7.534;2022-11-06T14:53:17;12.40;99.90
31311;DHT22;17937;51.508;7.534;2022-11-06T14:55:54;12.40;99.90
31311;DHT22;17937;51.508;7.534;2022-11-06T14:58:24;12.30;99.90
31311;DHT22;17937;51.508;7.534;2022-11-06T15:16:43;12.10;99.90
31311;DHT22;17937;51.508;7.534;2022-11-06T15:22:16;12.10;99.90
31311;DHT22;17937;51.508;7.534;2022-11-06T15:24:44;12.10;99.90
31311;DHT22;17937;51.508;7.534;2022-11-06T15:27:15;12.00;99.90
31311;DHT22;17937;51.508;7.534;2022-11-06T15:29:44;12.10;99.90
31311;DHT22;17937;51.508;7.534;2022-11-06T15:34:39;12.00;99.90
31311;DHT22;17937;51.508;7.534;2022-11-06T15:37:16;12.00;99.90
31311;DHT22;17937;51.508;7.534;2022-11-06T15:39:53;12.00;99.90
31311;DHT22;17937;51.508;7.534;2022-11-06T15:42:21;12.00;99.90
31311;DHT22;17937;51.508;7.534;2022-11-06T15:44:48;12.00;99.90
31311;DHT22;17937;51.508;7.534;2022-11-06T15:47:22;11.90;99.90
31311;DHT22;17937;51.508;7.534;2022-11-06T15:52:30;12.00;99.90
31311;DHT22;17937;51.508;7.534;2022-11-06T15:54:56;11.90;99.90
31311;DHT22;17937;51.508;7.534;2022-11-06T15:57:25;11.90;99.90
31311;DHT22;17937;51.508;7.534;2022-11-06T16:05:23;11.80;99.90
31311;DHT22;17937;51.508;7.534;2022-11-06T16:07:49;11.80;99.90
31311;DHT22;17937;51.508;7.534;2022-11-06T16:10:17;11.80;99.90
31311;DHT22;17937;51.508;7.534;2022-11-06T16:12:55;11.80;99.90
31311;DHT22;17937;51.508;7.534;2022-11-06T16:15:55;11.70;99.90
31311;DHT22;17937;51.508;7.534;2022-11-06T16:18:39;11.70;99.90
31311;DHT22;17937;51.508;7.534;2022-11-06T16:26:18;11.60;99.90
31311;DHT22;17937;51.508;7.534;2022-11-06T16:28:48;11.60;99.90
31311;DHT22;17937;51.508;7.534;2022-11-06T16:31:22;11.50;99.90
31311;DHT22;17937;51.508;7.534;2022-11-06T16:34:03;11.50;99.90
31311;DHT22;17937;51.508;7.534;2022-11-06T16:36:47;11.50;99.90
31311;DHT22;17937;51.508;7.534;2022-11-06T16:42:32;11.40;99.90
31311;DHT22;17937;51.508;7.534;2022-11-06T16:45:02;11.30;99.90
31311;DHT22;17937;51.508;7.534;2022-11-06T16:47:27;11.20;99.90
31311;DHT22;17937;51.508;7.534;2022-11-06T16:49:54;11.10;99.90
31311;DHT22;17937;51.508;7.534;2022-11-06T16:52:35;11.10;99.90
31311;DHT22;17937;51.508;7.534;2022-11-06T16:55:06;11.00;99.90
31311;DHT22;17937;51.508;7.534;2022-11-06T16:57:51;11.00;99.90
31311;DHT22;17937;51.508;7.534;2022-11-06T17:05:14;10.80;99.90
31311;DHT22;17937;51.508;7.534;2022-11-06T17:07:40;10.80;99.90
31311;DHT22;17937;51.508;7.534;2022-11-06T17:12:50;10.50;99.90
31311;DHT22;17937;51.508;7.534;2022-11-06T17:15:16;10.30;99.90
31311;DHT22;17937;51.508;7.534;2022-11-06T17:17:41;10.30;99.90
31311;DHT22;17937;51.508;7.534;2022-11-06T17:20:16;10.20;99.90
31311;DHT22;17937;51.508;7.534;2022-11-06T17:22:42;10.30;99.90
31311;DHT22;17937;51.508;7.534;2022-11-06T17:25:07;10.20;99.90
31311;DHT22;17937;51.508;7.534;2022-11-06T17:27:33;10.20;99.90
31311;DHT22;17937;51.508;7.534;2022-11-06T17:29:58;10.20;99.90
31311;DHT22;17937;51.508;7.534;2022-11-06T17:32:24;10.30;99.90
31311;DHT22;17937;51.508;7.534;2022-11-06T17:34:49;10.30;99.90
31311;DHT22;17937;51.508;7.534;2022-11-06T17:37:15;10.30;99.90
31311;DHT22;17937;51.508;7.534;2022-11-06T17:39:42;10.30;99.90
31311;DHT22;17937;51.508;7.534;2022-11-06T17:42:08;10.30;99.90
31311;DHT22;17937;51.508;7.534;2022-11-06T17:44:34;10.30;99.90
31311;DHT22;17937;51.508;7.534;2022-11-06T17:46:59;10.30;99.90
31311;DHT22;17937;51.508;7.534;2022-11-06T17:49:25;10.30;99.90
31311;DHT22;17937;51.508;7.534;2022-11-06T17:51:50;10.30;99.90
31311;DHT22;17937;51.508;7.534;2022-11-06T17:54:26;10.30;99.90
31311;DHT22;17937;51.508;7.534;2022-11-06T17:56:53;10.30;99.90
31311;DHT22;17937;51.508;7.534;2022-11-06T17:59:20;10.30;99.90
31311;DHT22;17937;51.508;7.534;2022-11-06T18:01:46;10.30;99.90
31311;DHT22;17937;51.508;7.534;2022-11-06T18:04:12;10.20;99.90
31311;DHT22;17937;51.508;7.534;2022-11-06T18:06:38;10.30;99.90
31311;DHT22;17937;51.508;7.534;2022-11-06T18:09:05;10.30;99.90
31311;DHT22;17937;51.508;7.534;2022-11-06T18:11:31;10.30;99.90
31311;DHT22;17937;51.508;7.534;2022-11-06T18:13:57;10.30;99.90
31311;DHT22;17937;51.508;7.534;2022-11-06T18:16:25;10.30;99.90
31311;DHT22;17937;51.508;7.534;2022-11-06T18:18:54;10.30;99.90
31311;DHT22;17937;51.508;7.534;2022-11-06T18:21:21;10.30;99.90
31311;DHT22;17937;51.508;7.534;2022-11-06T18:23:46;10.40;99.90
31311;DHT22;17937;51.508;7.534;2022-11-06T18:26:12;10.30;99.90
31311;DHT22;17937;51.508;7.534;2022-11-06T18:28:39;10.30;99.90
31311;DHT22;17937;51.508;7.534;2022-11-06T18:31:04;10.30;99.90
31311;DHT22;17937;51.508;7.534;2022-11-06T18:33:30;10.30;99.90
31311;DHT22;17937;51.508;7.534;2022-11-06T18:36:04;10.20;99.90
31311;DHT22;17937;51.508;7.534;2022-11-06T18:38:31;10.30;99.90
31311;DHT22;17937;51.508;7.534;2022-11-06T18:40:56;10.30;99.90
31311;DHT22;17937;51.508;7.534;2022-11-06T18:43:22;10.30;99.90
31311;DHT22;17937;51.508;7.534;2022-11-06T18:45:48;10.30;99.90
31311;DHT22;17937;51.508;7.534;2022-11-06T18:48:14;10.30;99.90
31311;DHT22;17937;51.508;7.534;2022-11-06T18:50:39;10.30;99.90
31311;DHT22;17937;51.508;7.534;2022-11-06T18:53:05;10.30;99.90
31311;DHT22;17937;51.508;7.534;2022-11-06T18:55:32;10.30;99.90
31311;DHT22;17937;51.508;7.534;2022-11-06T18:57:57;10.30;99.90
31311;DHT22;17937;51.508;7.534;2022-11-06T19:00:23;10.40;99.90
31311;DHT22;17937;51.508;7.534;2022-11-06T19:02:49;10.40;99.90
31311;DHT22;17937;51.508;7.534;2022-11-06T19:05:15;10.40;99.90
31311;DHT22;17937;51.508;7.534;2022-11-06T19:07:40;10.40;99.90
31311;DHT22;17937;51.508;7.534;2022-11-06T19:10:06;10.30;99.90
31311;DHT22;17937;51.508;7.534;2022-11-06T19:12:33;10.40;99.90
31311;DHT22;17937;51.508;7.534;2022-11-06T19:14:59;10.40;99.90